sensor_id;sensor_type;location;lat;lon;timestamp;temperature;humidity
3976;DHT22;2002;48.812;9.180;2023-04-25T00:02:20;17.20;1.00
3976;DHT22;2002;48.812;9.180;2023-04-25T00:04:46;17.20;1.00
3976;DHT22;2002;48.812;9.180;2023-04-25T00:07:14;17.20;1.00
3976;DHT22;2002;48.812;9.180;2023-04-25T00:09:39;17.20;1.00
3976;DHT22;2002;48.812;9.180;2023-04-25T00:12:05;17.20;1.00
3976;DHT22;2002;48.812;9.180;2023-04-25T00:14:31;17.20;1.00
3976;DHT22;2002;48.812;9.180;2023-04-25T00:16:59;17.20;1.00
3976;DHT22;2002;48.812;9.180;2023-04-25T00:19:25;17.20;1.00
3976;DHT22;2002;48.812;9.180;2023-04-25T00:21:52;17.20;1.00
3976;DHT22;2002;48.812;9.180;2023-04-25T00:24:19;17.20;1.00
3976;DHT22;2002;48.812;9.180;2023-04-25T00:26:45;17.20;1.00
3976;DHT22;2002;48.812;9.180;2023-04-25T00:29:10;17.20;1.00
3976;DHT22;2002;48.812;9.180;2023-04-25T00:31:36;17.20;1.00
3976;DHT22;2002;48.812;9.180;2023-04-25T00:34:01;17.20;1.00
3976;DHT22;2002;48.812;9.180;2023-04-25T00:36:27;17.10;1.00
3976;DHT22;2002;48.812;9.180;2023-04-25T00:38:53;17.20;1.00
3976;DHT22;2002;48.812;9.180;2023-04-25T00:41:20;17.10;1.00
3976;DHT22;2002;48.812;9.180;2023-04-25T00:43:46;17.20;1.00
3976;DHT22;2002;48.812;9.180;2023-04-25T00:46:12;17.20;1.00
3976;DHT22;2002;48.812;9.180;2023-04-25T00:48:38;17.10;1.00
3976;DHT22;2002;48.812;9.180;2023-04-25T00:51:03;17.10;1.00
3976;DHT22;2002;48.812;9.180;2023-04-25T00:53:30;17.10;1.00
3976;DHT22;2002;48.812;9.180;2023-04-25T00:55:57;17.20;1.00
3976;DHT22;2002;48.812;9.180;2023-04-25T00:58:23;17.10;1.00
3976;DHT22;2002;48.812;9.180;2023-04-25T01:00:50;17.10;1.00
3976;DHT22;2002;48.812;9.180;2023-04-25T01:03:18;17.10;1.00
3976;DHT22;2002;48.812;9.180;2023-04-25T01:05:47;17.10;1.00
3976;DHT22;2002;48.812;9.180;2023-04-25T01:08:13;17.10;1.00
3976;DHT22;2002;48.812;9.180;2023-04-25T01:10:39;17.20;1.00
3976;DHT22;2002;48.812;9.180;2023-04-25T01:13:05;17.10;1.00
3976;DHT22;2002;48.812;9.180;2023-04-25T01:15:31;17.10;1.00
3976;DHT22;2002;48.812;9.180;2023-04-25T01:17:57;17.10;1.00
3976;DHT22;2002;48.812;9.180;2023-04-25T01:20:23;17.10;1.00
3976;DHT22;2002;48.812;9.180;2023-04-25T01:22:51;17.10;1.00
3976;DHT22;2002;48.812;9.180;2023-04-25T01:25:18;17.10;1.00
3976;DHT22;2002;48.812;9.180;2023-04-25T01:27:44;17.10;1.00
3976;DHT22;2002;48.812;9.180;2023-04-25T01:30:10;17.10;1.00
3976;DHT22;2002;48.812;9.180;2023-04-25T01:32:36;17.10;1.00
3976;DHT22;2002;48.812;9.180;2023-04-25T01:35:06;17.20;1.00
3976;DHT22;2002;48.812;9.180;2023-04-25T01:37:42;17.20;1.00
3976;DHT22;2002;48.812;9.180;2023-04-25T01:40:12;17.20;1.00
3976;DHT22;2002;48.812;9.180;2023-04-25T01:42:40;17.20;1.00
3976;DHT22;2002;48.812;9.180;2023-04-25T01:45:07;17.20;1.00
3976;DHT22;2002;48.812;9.180;2023-04-25T01:47:33;17.30;1.00
3976;DHT22;2002;48.812;9.180;2023-04-25T01:50:03;17.30;1.00
3976;DHT22;2002;48.812;9.180;2023-04-25T01:52:29;17.30;1.00
3976;DHT22;2002;48.812;9.180;2023-04-25T01:54:57;17.20;1.00
3976;DHT22;2002;48.812;9.180;2023-04-25T01:57:23;17.20;1.00
3976;DHT22;2002;48.812;9.180;2023-04-25T01:59:49;17.20;1.00
3976;DHT22;2002;48.812;9.180;2023-04-25T02:02:15;17.20;1.00
3976;DHT22;2002;48.812;9.180;2023-04-25T02:04:40;17.20;1.00
3976;DHT22;2002;48.812;9.180;2023-04-25T02:07:06;17.20;1.00
3976;DHT22;2002;48.812;9.180;2023-04-25T02:09:31;17.20;1.00
3976;DHT22;2002;48.812;9.180;2023-04-25T02:11:58;17.20;1.00
3976;DHT22;2002;48.812;9.180;2023-04-25T02:14:23;17.20;1.00
3976;DHT22;2002;48.812;9.180;2023-04-25T02:16:49;17.20;1.00
3976;DHT22;2002;48.812;9.180;2023-04-25T02:19:16;17.10;1.00
3976;DHT22;2002;48.812;9.180;2023-04-25T02:21:42;17.20;1.00
3976;DHT22;2002;48.812;9.180;2023-04-25T02:24:07;17.20;1.00
3976;DHT22;2002;48.812;9.180;2023-04-25T02:26:33;17.10;1.00
3976;DHT22;2002;48.812;9.180;2023-04-25T02:28:59;17.10;1.00
3976;DHT22;2002;48.812;9.180;2023-04-25T02:31:25;17.10;1.00
3976;DHT22;2002;48.812;9.180;2023-04-25T02:33:51;17.10;1.00
3976;DHT22;2002;48.812;9.180;2023-04-25T02:36:17;17.10;1.00
3976;DHT22;2002;48.812;9.180;2023-04-25T02:38:42;17.10;1.00
3976;DHT22;2002;48.812;9.180;2023-04-25T02:41:08;17.10;1.00
3976;DHT22;2002;48.812;9.180;2023-04-25T02:43:33;17.10;1.00
3976;DHT22;2002;48.812;9.180;2023-04-25T02:45:59;17.10;1.00
3976;DHT22;2002;48.812;9.180;2023-04-25T02:48:25;17.10;1.00
3976;DHT22;2002;48.812;9.180;2023-04-25T02:50:50;17.10;1.00
3976;DHT22;2002;48.812;9.180;2023-04-25T02:53:16;17.10;1.00
3976;DHT22;2002;48.812;9.180;2023-04-25T02:55:42;17.10;1.00
3976;DHT22;2002;48.812;9.180;2023-04-25T02:58:07;17.10;1.00
3976;DHT22;2002;48.812;9.180;2023-04-25T03:00:33;17.10;1.00
3976;DHT22;2002;48.812;9.180;2023-04-25T03:02:58;17.10;1.00
3976;DHT22;2002;48.812;9.180;2023-04-25T03:05:24;17.10;1.00
3976;DHT22;2002;48.812;9.180;2023-04-25T03:07:49;17.10;1.00
3976;DHT22;2002;48.812;9.180;2023-04-25T03:10:15;17.00;1.00
3976;DHT22;2002;48.812;9.180;2023-04-25T03:12:40;17.10;1.00
3976;DHT22;2002;48.812;9.180;2023-04-25T03:15:06;17.00;1.00
3976;DHT22;2002;48.812;9.180;2023-04-25T03:17:32;17.00;1.00
3976;DHT22;2002;48.812;9.180;2023-04-25T03:19:57;17.00;1.00
3976;DHT22;2002;48.812;9.180;2023-04-25T03:22:23;17.00;1.00
3976;DHT22;2002;48.812;9.180;2023-04-25T03:24:49;17.00;1.00
3976;DHT22;2002;48.812;9.180;2023-04-25T03:27:15;17.00;1.00
3976;DHT22;2002;48.812;9.180;2023-04-25T03:29:41;17.00;1.00
3976;DHT22;2002;48.812;9.180;2023-04-25T03:32:06;17.10;1.00
3976;DHT22;2002;48.812;9.180;2023-04-25T03:34:32;17.10;1.00
3976;DHT22;2002;48.812;9.180;2023-04-25T03:36:57;17.20;1.00
3976;DHT22;2002;48.812;9.180;2023-04-25T03:39:23;17.20;1.00
3976;DHT22;2002;48.812;9.180;2023-04-25T03:41:48;17.20;1.00
3976;DHT22;2002;48.812;9.180;2023-04-25T03:44:14;17.30;1.00
3976;DHT22;2002;48.812;9.180;2023-04-25T03:46:40;17.30;1.00
3976;DHT22;2002;48.812;9.180;2023-04-25T03:49:05;17.30;1.00
3976;DHT22;2002;48.812;9.180;2023-04-25T03:51:31;17.20;1.00
3976;DHT22;2002;48.812;9.180;2023-04-25T03:53:56;17.20;1.00
3976;DHT22;2002;48.812;9.180;2023-04-25T03:56:22;17.20;1.00
3976;DHT22;2002;48.812;9.180;2023-04-25T03:58:47;17.20;1.00
3976;DHT22;2002;48.812;9.180;2023-04-25T04:01:13;17.20;1.00
3976;DHT22;2002;48.812;9.180;2023-04-25T04:03:39;17.10;1.00
3976;DHT22;2002;48.812;9.180;2023-04-25T04:06:05;17.10;1.00
3976;DHT22;2002;48.812;9.180;2023-04-25T04:08:32;17.10;1.00
3976;DHT22;2002;48.812;9.180;2023-04-25T04:10:58;17.10;1.00
3976;DHT22;2002;48.812;9.180;2023-04-25T04:13:26;17.10;1.00
3976;DHT22;2002;48.812;9.180;2023-04-25T04:15:52;17.10;1.00
3976;DHT22;2002;48.812;9.180;2023-04-25T04:18:18;17.10;1.00
3976;DHT22;2002;48.812;9.180;2023-04-25T04:20:43;17.10;1.00
3976;DHT22;2002;48.812;9.180;2023-04-25T04:23:09;17.10;1.00
3976;DHT22;2002;48.812;9.180;2023-04-25T04:25:34;17.10;1.00
3976;DHT22;2002;48.812;9.180;2023-04-25T04:28:00;17.10;1.00
3976;DHT22;2002;48.812;9.180;2023-04-25T04:30:26;17.10;1.00
3976;DHT22;2002;48.812;9.180;2023-04-25T04:32:55;17.10;1.00
3976;DHT22;2002;48.812;9.180;2023-04-25T04:35:21;17.10;1.00
3976;DHT22;2002;48.812;9.180;2023-04-25T04:37:47;17.10;1.00
3976;DHT22;2002;48.812;9.180;2023-04-25T04:40:13;17.00;1.00
3976;DHT22;2002;48.812;9.180;2023-04-25T04:42:41;17.10;1.00
3976;DHT22;2002;48.812;9.180;2023-04-25T04:45:07;17.10;1.00
3976;DHT22;2002;48.812;9.180;2023-04-25T04:47:33;17.10;1.00
3976;DHT22;2002;48.812;9.180;2023-04-25T04:49:59;17.10;1.00
3976;DHT22;2002;48.812;9.180;2023-04-25T04:52:24;17.10;1.00
3976;DHT22;2002;48.812;9.180;2023-04-25T04:54:50;17.00;1.00
3976;DHT22;2002;48.812;9.180;2023-04-25T04:57:16;17.00;1.00
3976;DHT22;2002;48.812;9.180;2023-04-25T04:59:42;17.00;1.00
3976;DHT22;2002;48.812;9.180;2023-04-25T05:02:07;17.00;1.00
3976;DHT22;2002;48.812;9.180;2023-04-25T05:04:33;17.00;1.00
3976;DHT22;2002;48.812;9.180;2023-04-25T05:06:58;17.00;1.00
3976;DHT22;2002;48.812;9.180;2023-04-25T05:09:24;17.00;1.00
3976;DHT22;2002;48.812;9.180;2023-04-25T05:11:52;17.00;1.00
3976;DHT22;2002;48.812;9.180;2023-04-25T05:14:18;17.00;1.00
3976;DHT22;2002;48.812;9.180;2023-04-25T05:16:43;17.00;1.00
3976;DHT22;2002;48.812;9.180;2023-04-25T05:19:09;17.00;1.00
3976;DHT22;2002;48.812;9.180;2023-04-25T05:21:35;17.00;1.00
3976;DHT22;2002;48.812;9.180;2023-04-25T05:24:01;17.00;1.00
3976;DHT22;2002;48.812;9.180;2023-04-25T05:26:26;17.00;1.00
3976;DHT22;2002;48.812;9.180;2023-04-25T05:28:58;17.10;1.00
3976;DHT22;2002;48.812;9.180;2023-04-25T05:31:25;17.10;1.00
3976;DHT22;2002;48.812;9.180;2023-04-25T05:33:51;17.10;1.00
3976;DHT22;2002;48.812;9.180;2023-04-25T05:36:18;17.20;1.00
3976;DHT22;2002;48.812;9.180;2023-04-25T05:38:44;17.20;1.00
3976;DHT22;2002;48.812;9.180;2023-04-25T05:41:10;17.30;1.00
3976;DHT22;2002;48.812;9.180;2023-04-25T05:43:36;17.30;1.00
3976;DHT22;2002;48.812;9.180;2023-04-25T05:46:01;17.30;1.00
3976;DHT22;2002;48.812;9.180;2023-04-25T05:48:27;17.30;1.00
3976;DHT22;2002;48.812;9.180;2023-04-25T05:50:53;17.30;1.00
3976;DHT22;2002;48.812;9.180;2023-04-25T05:53:19;17.30;1.00
3976;DHT22;2002;48.812;9.180;2023-04-25T05:55:45;17.30;1.00
3976;DHT22;2002;48.812;9.180;2023-04-25T05:58:10;17.30;1.00
3976;DHT22;2002;48.812;9.180;2023-04-25T06:00:36;17.30;1.00
3976;DHT22;2002;48.812;9.180;2023-04-25T06:03:01;17.30;1.00
3976;DHT22;2002;48.812;9.180;2023-04-25T06:05:28;17.30;1.00
3976;DHT22;2002;48.812;9.180;2023-04-25T06:07:53;17.30;1.00
3976;DHT22;2002;48.812;9.180;2023-04-25T06:10:19;17.30;1.00
3976;DHT22;2002;48.812;9.180;2023-04-25T06:12:45;17.30;1.00
3976;DHT22;2002;48.812;9.180;2023-04-25T06:15:10;17.30;1.00
3976;DHT22;2002;48.812;9.180;2023-04-25T06:17:36;17.30;1.00
3976;DHT22;2002;48.812;9.180;2023-04-25T06:20:02;17.30;1.00
3976;DHT22;2002;48.812;9.180;2023-04-25T06:22:29;17.30;1.00
3976;DHT22;2002;48.812;9.180;2023-04-25T06:24:54;17.30;1.00
3976;DHT22;2002;48.812;9.180;2023-04-25T06:27:22;17.30;1.00
3976;DHT22;2002;48.812;9.180;2023-04-25T06:29:48;17.30;1.00
3976;DHT22;2002;48.812;9.180;2023-04-25T06:32:13;17.30;1.00
3976;DHT22;2002;48.812;9.180;2023-04-25T06:34:39;17.20;1.00
3976;DHT22;2002;48.812;9.180;2023-04-25T06:37:05;17.20;1.00
3976;DHT22;2002;48.812;9.180;2023-04-25T06:39:30;17.20;1.00
3976;DHT22;2002;48.812;9.180;2023-04-25T06:41:56;17.20;1.00
3976;DHT22;2002;48.812;9.180;2023-04-25T06:44:22;17.20;1.00
3976;DHT22;2002;48.812;9.180;2023-04-25T06:46:49;17.20;1.00
3976;DHT22;2002;48.812;9.180;2023-04-25T06:49:15;17.20;1.00
3976;DHT22;2002;48.812;9.180;2023-04-25T06:51:40;17.20;1.00
3976;DHT22;2002;48.812;9.180;2023-04-25T06:54:06;17.20;1.00
3976;DHT22;2002;48.812;9.180;2023-04-25T06:56:31;17.20;1.00
3976;DHT22;2002;48.812;9.180;2023-04-25T06:58:57;17.20;1.00
3976;DHT22;2002;48.812;9.180;2023-04-25T07:01:22;17.20;1.00
3976;DHT22;2002;48.812;9.180;2023-04-25T07:03:48;17.20;1.00
3976;DHT22;2002;48.812;9.180;2023-04-25T07:06:14;17.20;1.00
3976;DHT22;2002;48.812;9.180;2023-04-25T07:08:39;17.20;1.00
3976;DHT22;2002;48.812;9.180;2023-04-25T07:11:05;17.20;1.00
3976;DHT22;2002;48.812;9.180;2023-04-25T07:13:30;17.20;1.00
3976;DHT22;2002;48.812;9.180;2023-04-25T07:15:56;17.20;1.00
3976;DHT22;2002;48.812;9.180;2023-04-25T07:18:22;17.20;1.00
3976;DHT22;2002;48.812;9.180;2023-04-25T07:20:47;17.20;1.00
3976;DHT22;2002;48.812;9.180;2023-04-25T07:23:13;17.20;1.00
3976;DHT22;2002;48.812;9.180;2023-04-25T07:25:39;17.20;1.00
3976;DHT22;2002;48.812;9.180;2023-04-25T07:28:04;17.20;1.00
3976;DHT22;2002;48.812;9.180;2023-04-25T07:30:30;17.20;1.00
3976;DHT22;2002;48.812;9.180;2023-04-25T07:32:56;17.20;1.00
3976;DHT22;2002;48.812;9.180;2023-04-25T07:35:22;17.20;1.00
3976;DHT22;2002;48.812;9.180;2023-04-25T07:37:47;17.30;1.00
3976;DHT22;2002;48.812;9.180;2023-04-25T07:40:13;17.30;1.00
3976;DHT22;2002;48.812;9.180;2023-04-25T07:42:41;17.40;1.00
3976;DHT22;2002;48.812;9.180;2023-04-25T07:45:07;17.40;1.00
3976;DHT22;2002;48.812;9.180;2023-04-25T07:47:32;17.40;1.00
3976;DHT22;2002;48.812;9.180;2023-04-25T07:49:58;17.40;1.00
3976;DHT22;2002;48.812;9.180;2023-04-25T07:52:23;17.40;1.00
3976;DHT22;2002;48.812;9.180;2023-04-25T07:54:49;17.40;1.00
3976;DHT22;2002;48.812;9.180;2023-04-25T07:57:14;17.40;1.00
3976;DHT22;2002;48.812;9.180;2023-04-25T07:59:42;17.60;1.00
3976;DHT22;2002;48.812;9.180;2023-04-25T08:02:07;17.70;1.00
3976;DHT22;2002;48.812;9.180;2023-04-25T08:04:33;17.80;1.00
3976;DHT22;2002;48.812;9.180;2023-04-25T08:06:58;17.80;1.00
3976;DHT22;2002;48.812;9.180;2023-04-25T08:09:24;17.70;1.00
3976;DHT22;2002;48.812;9.180;2023-04-25T08:11:50;17.70;1.00
3976;DHT22;2002;48.812;9.180;2023-04-25T08:14:15;17.60;1.00
3976;DHT22;2002;48.812;9.180;2023-04-25T08:16:41;17.60;1.00
3976;DHT22;2002;48.812;9.180;2023-04-25T08:19:07;17.60;1.00
3976;DHT22;2002;48.812;9.180;2023-04-25T08:21:33;17.50;1.00
3976;DHT22;2002;48.812;9.180;2023-04-25T08:23:58;17.50;1.00
3976;DHT22;2002;48.812;9.180;2023-04-25T08:26:24;17.50;1.00
3976;DHT22;2002;48.812;9.180;2023-04-25T08:28:50;17.40;1.00
3976;DHT22;2002;48.812;9.180;2023-04-25T08:31:16;17.40;1.00
3976;DHT22;2002;48.812;9.180;2023-04-25T08:33:42;17.40;1.00
3976;DHT22;2002;48.812;9.180;2023-04-25T08:36:08;17.40;1.00
3976;DHT22;2002;48.812;9.180;2023-04-25T08:38:33;17.40;1.00
3976;DHT22;2002;48.812;9.180;2023-04-25T08:41:00;17.30;1.00
3976;DHT22;2002;48.812;9.180;2023-04-25T08:43:29;17.30;1.00
3976;DHT22;2002;48.812;9.180;2023-04-25T08:45:59;17.40;1.00
3976;DHT22;2002;48.812;9.180;2023-04-25T08:48:27;17.40;1.00
3976;DHT22;2002;48.812;9.180;2023-04-25T08:50:55;17.40;1.00
3976;DHT22;2002;48.812;9.180;2023-04-25T08:53:26;17.30;1.00
3976;DHT22;2002;48.812;9.180;2023-04-25T08:55:54;17.30;1.00
3976;DHT22;2002;48.812;9.180;2023-04-25T08:58:21;17.40;1.00
3976;DHT22;2002;48.812;9.180;2023-04-25T09:00:47;17.30;1.00
3976;DHT22;2002;48.812;9.180;2023-04-25T09:03:13;17.30;1.00
3976;DHT22;2002;48.812;9.180;2023-04-25T09:05:40;17.30;1.00
3976;DHT22;2002;48.812;9.180;2023-04-25T09:08:06;17.30;1.00
3976;DHT22;2002;48.812;9.180;2023-04-25T09:10:32;17.30;1.00
3976;DHT22;2002;48.812;9.180;2023-04-25T09:13:09;17.30;1.00
3976;DHT22;2002;48.812;9.180;2023-04-25T09:15:48;17.20;1.00
3976;DHT22;2002;48.812;9.180;2023-04-25T09:18:31;17.20;1.00
3976;DHT22;2002;48.812;9.180;2023-04-25T09:21:08;17.20;1.00
3976;DHT22;2002;48.812;9.180;2023-04-25T09:23:47;17.20;1.00
3976;DHT22;2002;48.812;9.180;2023-04-25T09:26:18;17.20;1.00
3976;DHT22;2002;48.812;9.180;2023-04-25T09:28:44;17.20;1.00
3976;DHT22;2002;48.812;9.180;2023-04-25T09:31:11;17.30;1.00
3976;DHT22;2002;48.812;9.180;2023-04-25T09:33:37;17.20;1.00
3976;DHT22;2002;48.812;9.180;2023-04-25T09:36:05;17.20;1.00
3976;DHT22;2002;48.812;9.180;2023-04-25T09:38:39;17.20;1.00
3976;DHT22;2002;48.812;9.180;2023-04-25T09:41:05;17.20;1.00
3976;DHT22;2002;48.812;9.180;2023-04-25T09:43:31;17.20;1.00
3976;DHT22;2002;48.812;9.180;2023-04-25T09:45:56;17.10;1.00
3976;DHT22;2002;48.812;9.180;2023-04-25T09:48:25;17.20;1.00
3976;DHT22;2002;48.812;9.180;2023-04-25T09:51:11;17.10;1.00
3976;DHT22;2002;48.812;9.180;2023-04-25T09:53:38;17.20;1.00
3976;DHT22;2002;48.812;9.180;2023-04-25T09:56:06;17.10;1.00
3976;DHT22;2002;48.812;9.180;2023-04-25T09:58:32;17.20;1.00
3976;DHT22;2002;48.812;9.180;2023-04-25T10:01:00;17.10;1.00
3976;DHT22;2002;48.812;9.180;2023-04-25T10:03:30;17.10;1.00
3976;DHT22;2002;48.812;9.180;2023-04-25T10:05:59;17.10;1.00
3976;DHT22;2002;48.812;9.180;2023-04-25T10:08:26;17.10;1.00
3976;DHT22;2002;48.812;9.180;2023-04-25T10:10:56;17.10;1.00
3976;DHT22;2002;48.812;9.180;2023-04-25T10:13:23;17.10;1.00
3976;DHT22;2002;48.812;9.180;2023-04-25T10:15:49;17.10;1.00
3976;DHT22;2002;48.812;9.180;2023-04-25T10:18:16;17.20;1.00
3976;DHT22;2002;48.812;9.180;2023-04-25T10:20:43;17.20;1.00
3976;DHT22;2002;48.812;9.180;2023-04-25T10:23:13;17.20;1.00
3976;DHT22;2002;48.812;9.180;2023-04-25T10:25:40;17.20;1.00
3976;DHT22;2002;48.812;9.180;2023-04-25T10:28:06;17.20;1.00
3976;DHT22;2002;48.812;9.180;2023-04-25T10:30:31;17.20;1.00
3976;DHT22;2002;48.812;9.180;2023-04-25T10:32:58;17.30;1.00
3976;DHT22;2002;48.812;9.180;2023-04-25T10:35:26;17.40;1.00
3976;DHT22;2002;48.812;9.180;2023-04-25T10:38:08;17.50;1.00
3976;DHT22;2002;48.812;9.180;2023-04-25T10:40:34;17.50;1.00
3976;DHT22;2002;48.812;9.180;2023-04-25T10:45:56;17.40;1.00
3976;DHT22;2002;48.812;9.180;2023-04-25T10:48:26;17.40;1.00
3976;DHT22;2002;48.812;9.180;2023-04-25T10:51:14;17.40;1.00
3976;DHT22;2002;48.812;9.180;2023-04-25T10:53:40;17.30;1.00
3976;DHT22;2002;48.812;9.180;2023-04-25T10:56:23;17.30;1.00
3976;DHT22;2002;48.812;9.180;2023-04-25T10:58:50;17.30;1.00
3976;DHT22;2002;48.812;9.180;2023-04-25T11:01:20;17.30;1.00
3976;DHT22;2002;48.812;9.180;2023-04-25T11:03:45;17.30;1.00
3976;DHT22;2002;48.812;9.180;2023-04-25T11:06:34;17.30;1.00
3976;DHT22;2002;48.812;9.180;2023-04-25T11:09:03;17.20;1.00
3976;DHT22;2002;48.812;9.180;2023-04-25T11:11:36;17.20;1.00
3976;DHT22;2002;48.812;9.180;2023-04-25T11:14:02;17.20;1.00
3976;DHT22;2002;48.812;9.180;2023-04-25T11:16:28;17.20;1.00
3976;DHT22;2002;48.812;9.180;2023-04-25T11:18:53;17.20;1.00
3976;DHT22;2002;48.812;9.180;2023-04-25T11:21:22;17.20;1.00
3976;DHT22;2002;48.812;9.180;2023-04-25T11:23:47;17.20;1.00
3976;DHT22;2002;48.812;9.180;2023-04-25T11:26:13;17.20;1.00
3976;DHT22;2002;48.812;9.180;2023-04-25T11:28:40;17.20;1.00
3976;DHT22;2002;48.812;9.180;2023-04-25T11:31:05;17.20;1.00
3976;DHT22;2002;48.812;9.180;2023-04-25T11:33:32;17.20;1.00
3976;DHT22;2002;48.812;9.180;2023-04-25T11:35:58;17.20;1.00
3976;DHT22;2002;48.812;9.180;2023-04-25T11:38:24;17.20;1.00
3976;DHT22;2002;48.812;9.180;2023-04-25T11:40:54;17.20;1.00
3976;DHT22;2002;48.812;9.180;2023-04-25T11:43:21;17.20;1.00
3976;DHT22;2002;48.812;9.180;2023-04-25T11:45:48;17.20;1.00
3976;DHT22;2002;48.812;9.180;2023-04-25T11:48:14;17.20;1.00
3976;DHT22;2002;48.812;9.180;2023-04-25T11:50:40;17.20;1.00
3976;DHT22;2002;48.812;9.180;2023-04-25T11:53:06;17.20;1.00
3976;DHT22;2002;48.812;9.180;2023-04-25T11:55:33;17.20;1.00
3976;DHT22;2002;48.812;9.180;2023-04-25T11:58:00;17.10;1.00
3976;DHT22;2002;48.812;9.180;2023-04-25T12:00:26;17.20;1.00
3976;DHT22;2002;48.812;9.180;2023-04-25T12:02:53;17.10;1.00
3976;DHT22;2002;48.812;9.180;2023-04-25T12:05:19;17.10;1.00
3976;DHT22;2002;48.812;9.180;2023-04-25T12:07:46;17.10;1.00
3976;DHT22;2002;48.812;9.180;2023-04-25T12:10:14;17.10;1.00
3976;DHT22;2002;48.812;9.180;2023-04-25T12:12:44;17.10;1.00
3976;DHT22;2002;48.812;9.180;2023-04-25T12:15:10;17.10;1.00
3976;DHT22;2002;48.812;9.180;2023-04-25T12:17:37;17.10;1.00
3976;DHT22;2002;48.812;9.180;2023-04-25T12:20:12;17.10;1.00
3976;DHT22;2002;48.812;9.180;2023-04-25T12:22:40;17.10;1.00
3976;DHT22;2002;48.812;9.180;2023-04-25T12:25:06;17.10;1.00
3976;DHT22;2002;48.812;9.180;2023-04-25T12:27:33;17.10;1.00
3976;DHT22;2002;48.812;9.180;2023-04-25T12:29:59;17.10;1.00
3976;DHT22;2002;48.812;9.180;2023-04-25T12:32:24;17.10;1.00
3976;DHT22;2002;48.812;9.180;2023-04-25T12:34:51;17.10;1.00
3976;DHT22;2002;48.812;9.180;2023-04-25T12:37:17;17.10;1.00
3976;DHT22;2002;48.812;9.180;2023-04-25T12:39:42;17.10;1.00
3976;DHT22;2002;48.812;9.180;2023-04-25T12:42:08;17.10;1.00
3976;DHT22;2002;48.812;9.180;2023-04-25T12:44:37;17.10;1.00
3976;DHT22;2002;48.812;9.180;2023-04-25T12:47:03;17.10;1.00
3976;DHT22;2002;48.812;9.180;2023-04-25T12:49:29;17.10;1.00
3976;DHT22;2002;48.812;9.180;2023-04-25T12:51:54;17.10;1.00
3976;DHT22;2002;48.812;9.180;2023-04-25T12:54:20;17.10;1.00
3976;DHT22;2002;48.812;9.180;2023-04-25T12:56:46;17.20;1.00
3976;DHT22;2002;48.812;9.180;2023-04-25T12:59:12;17.30;1.00
3976;DHT22;2002;48.812;9.180;2023-04-25T13:01:38;17.40;1.00
3976;DHT22;2002;48.812;9.180;2023-04-25T13:04:03;17.40;1.00
3976;DHT22;2002;48.812;9.180;2023-04-25T13:06:29;17.40;1.00
3976;DHT22;2002;48.812;9.180;2023-04-25T13:08:57;17.40;1.00
3976;DHT22;2002;48.812;9.180;2023-04-25T13:11:23;17.40;1.00
3976;DHT22;2002;48.812;9.180;2023-04-25T13:13:49;17.30;1.00
3976;DHT22;2002;48.812;9.180;2023-04-25T13:16:14;17.30;1.00
3976;DHT22;2002;48.812;9.180;2023-04-25T13:18:40;17.30;1.00
3976;DHT22;2002;48.812;9.180;2023-04-25T13:21:06;17.20;1.00
3976;DHT22;2002;48.812;9.180;2023-04-25T13:23:32;17.20;1.00
3976;DHT22;2002;48.812;9.180;2023-04-25T13:25:57;17.20;1.00
3976;DHT22;2002;48.812;9.180;2023-04-25T13:28:27;17.20;1.00
3976;DHT22;2002;48.812;9.180;2023-04-25T13:30:53;17.20;1.00
3976;DHT22;2002;48.812;9.180;2023-04-25T13:33:19;17.10;1.00
3976;DHT22;2002;48.812;9.180;2023-04-25T13:35:46;17.10;1.00
3976;DHT22;2002;48.812;9.180;2023-04-25T13:38:14;17.20;1.00
3976;DHT22;2002;48.812;9.180;2023-04-25T13:40:40;17.20;1.00
3976;DHT22;2002;48.812;9.180;2023-04-25T13:43:06;17.20;1.00
3976;DHT22;2002;48.812;9.180;2023-04-25T13:45:32;17.10;1.00
3976;DHT22;2002;48.812;9.180;2023-04-25T13:47:57;17.10;1.00
3976;DHT22;2002;48.812;9.180;2023-04-25T13:50:23;17.10;1.00
3976;DHT22;2002;48.812;9.180;2023-04-25T13:52:48;17.10;1.00
3976;DHT22;2002;48.812;9.180;2023-04-25T13:55:14;17.10;1.00
3976;DHT22;2002;48.812;9.180;2023-04-25T13:57:40;17.10;1.00
3976;DHT22;2002;48.812;9.180;2023-04-25T14:00:06;17.10;1.00
3976;DHT22;2002;48.812;9.180;2023-04-25T14:02:34;17.10;1.00
3976;DHT22;2002;48.812;9.180;2023-04-25T14:05:00;17.10;1.00
3976;DHT22;2002;48.812;9.180;2023-04-25T14:07:27;17.10;1.00
3976;DHT22;2002;48.812;9.180;2023-04-25T14:09:53;17.10;1.00
3976;DHT22;2002;48.812;9.180;2023-04-25T14:12:18;17.10;1.00
3976;DHT22;2002;48.812;9.180;2023-04-25T14:14:44;17.10;1.00
3976;DHT22;2002;48.812;9.180;2023-04-25T14:17:09;17.00;1.00
3976;DHT22;2002;48.812;9.180;2023-04-25T14:19:35;17.10;1.00
3976;DHT22;2002;48.812;9.180;2023-04-25T14:22:01;17.10;1.00
3976;DHT22;2002;48.812;9.180;2023-04-25T14:24:27;17.10;1.00
3976;DHT22;2002;48.812;9.180;2023-04-25T14:26:53;17.10;1.00
3976;DHT22;2002;48.812;9.180;2023-04-25T14:29:18;17.10;1.00
3976;DHT22;2002;48.812;9.180;2023-04-25T14:31:44;17.10;1.00
3976;DHT22;2002;48.812;9.180;2023-04-25T14:34:10;17.10;1.00
3976;DHT22;2002;48.812;9.180;2023-04-25T14:36:36;17.10;1.00
3976;DHT22;2002;48.812;9.180;2023-04-25T14:39:02;17.10;1.00
3976;DHT22;2002;48.812;9.180;2023-04-25T14:41:28;17.10;1.00
3976;DHT22;2002;48.812;9.180;2023-04-25T14:43:53;17.10;1.00
3976;DHT22;2002;48.812;9.180;2023-04-25T14:46:20;17.00;1.00
3976;DHT22;2002;48.812;9.180;2023-04-25T14:48:46;17.00;1.00
3976;DHT22;2002;48.812;9.180;2023-04-25T14:51:12;17.00;1.00
3976;DHT22;2002;48.812;9.180;2023-04-25T14:53:39;17.00;1.00
3976;DHT22;2002;48.812;9.180;2023-04-25T14:56:05;17.00;1.00
3976;DHT22;2002;48.812;9.180;2023-04-25T14:58:31;17.00;1.00
3976;DHT22;2002;48.812;9.180;2023-04-25T15:00:56;17.00;1.00
3976;DHT22;2002;48.812;9.180;2023-04-25T15:03:22;17.00;1.00
3976;DHT22;2002;48.812;9.180;2023-04-25T15:05:48;17.00;1.00
3976;DHT22;2002;48.812;9.180;2023-04-25T15:08:13;17.10;1.00
3976;DHT22;2002;48.812;9.180;2023-04-25T15:10:39;17.00;1.00
3976;DHT22;2002;48.812;9.180;2023-04-25T15:13:05;17.00;1.00
3976;DHT22;2002;48.812;9.180;2023-04-25T15:15:30;17.00;1.00
3976;DHT22;2002;48.812;9.180;2023-04-25T15:17:57;17.10;1.00
3976;DHT22;2002;48.812;9.180;2023-04-25T15:20:23;17.00;1.00
3976;DHT22;2002;48.812;9.180;2023-04-25T15:22:48;17.00;1.00
3976;DHT22;2002;48.812;9.180;2023-04-25T15:25:15;17.00;1.00
3976;DHT22;2002;48.812;9.180;2023-04-25T15:27:44;17.00;1.00
3976;DHT22;2002;48.812;9.180;2023-04-25T15:30:14;17.20;1.00
3976;DHT22;2002;48.812;9.180;2023-04-25T15:32:44;17.30;1.00
3976;DHT22;2002;48.812;9.180;2023-04-25T15:35:10;17.40;1.00
3976;DHT22;2002;48.812;9.180;2023-04-25T15:37:36;17.50;1.00
3976;DHT22;2002;48.812;9.180;2023-04-25T15:40:30;17.60;1.00
3976;DHT22;2002;48.812;9.180;2023-04-25T15:42:55;17.50;1.00
3976;DHT22;2002;48.812;9.180;2023-04-25T15:45:24;17.40;1.00
3976;DHT22;2002;48.812;9.180;2023-04-25T15:47:55;17.40;1.00
3976;DHT22;2002;48.812;9.180;2023-04-25T15:50:21;17.40;1.00
3976;DHT22;2002;48.812;9.180;2023-04-25T15:52:50;17.30;1.00
3976;DHT22;2002;48.812;9.180;2023-04-25T15:55:18;17.30;1.00
3976;DHT22;2002;48.812;9.180;2023-04-25T15:57:43;17.30;1.00
3976;DHT22;2002;48.812;9.180;2023-04-25T16:00:10;17.30;1.00
3976;DHT22;2002;48.812;9.180;2023-04-25T16:02:38;17.20;1.00
3976;DHT22;2002;48.812;9.180;2023-04-25T16:05:04;17.20;1.00
3976;DHT22;2002;48.812;9.180;2023-04-25T16:07:30;17.20;1.00
3976;DHT22;2002;48.812;9.180;2023-04-25T16:09:56;17.20;1.00
3976;DHT22;2002;48.812;9.180;2023-04-25T16:12:21;17.20;1.00
3976;DHT22;2002;48.812;9.180;2023-04-25T16:14:47;17.20;1.00
3976;DHT22;2002;48.812;9.180;2023-04-25T16:17:12;17.10;1.00